createdAt,value
2022-12-29T00:04:26.471Z,10.0
2022-12-29T00:09:26.413Z,10.0
2022-12-29T00:14:26.522Z,10.0
2022-12-29T00:19:26.423Z,10.0
2022-12-29T00:24:26.491Z,10.0
2022-12-29T00:29:26.426Z,10.1
2022-12-29T00:34:26.484Z,10.0
2022-12-29T00:39:26.434Z,10.1
2022-12-29T00:44:26.461Z,10.1
2022-12-29T00:49:26.443Z,10.1
2022-12-29T00:54:26.556Z,10.1
2022-12-29T00:59:26.450Z,10.2
2022-12-29T01:04:26.513Z,10.2
2022-12-29T01:09:26.455Z,10.1
2022-12-29T01:14:26.476Z,10.1
2022-12-29T01:19:26.454Z,10.1
2022-12-29T01:24:26.578Z,10.1
2022-12-29T01:29:26.473Z,10.1
2022-12-29T01:34:26.525Z,10.1
2022-12-29T01:39:26.473Z,10.1
2022-12-29T01:44:26.478Z,10.1
2022-12-29T01:49:26.483Z,10.1
2022-12-29T01:54:26.674Z,9.9
2022-12-29T01:59:26.475Z,9.8
2022-12-29T02:04:26.535Z,9.9
2022-12-29T02:09:26.489Z,9.9
2022-12-29T02:14:26.505Z,9.9
2022-12-29T02:19:26.491Z,9.9
2022-12-29T02:24:26.556Z,9.9
2022-12-29T02:29:26.495Z,9.8
2022-12-29T02:34:26.565Z,9.8
2022-12-29T02:39:26.502Z,9.7
2022-12-29T02:44:26.506Z,9.7
2022-12-29T02:49:26.510Z,9.8
2022-12-29T02:54:26.628Z,9.8
2022-12-29T02:59:26.515Z,9.8
2022-12-29T03:04:26.570Z,9.9
2022-12-29T03:09:26.525Z,9.8
2022-12-29T03:14:26.521Z,9.9
2022-12-29T03:19:26.561Z,9.8
2022-12-29T03:24:26.634Z,9.8
2022-12-29T03:29:26.527Z,9.8
2022-12-29T03:34:26.585Z,9.6
2022-12-29T03:39:26.541Z,9.6
2022-12-29T03:44:26.535Z,9.5
2022-12-29T03:49:26.551Z,9.5
2022-12-29T03:54:26.629Z,9.5
2022-12-29T03:59:26.548Z,9.6
2022-12-29T04:04:26.627Z,9.5
2022-12-29T04:09:26.552Z,9.6
2022-12-29T04:14:26.557Z,9.5
2022-12-29T04:19:26.561Z,9.6
2022-12-29T04:24:26.676Z,9.6
2022-12-29T04:29:26.568Z,9.6
2022-12-29T04:34:26.625Z,9.6
2022-12-29T04:39:26.568Z,9.5
2022-12-29T04:44:26.609Z,9.5
2022-12-29T04:49:26.594Z,9.6
2022-12-29T04:54:26.634Z,9.7
2022-12-29T04:59:26.589Z,9.6
2022-12-29T05:04:26.646Z,9.5
2022-12-29T05:09:26.584Z,9.4
2022-12-29T05:14:26.591Z,9.4
2022-12-29T05:19:26.610Z,9.4
2022-12-29T05:24:26.715Z,9.2
2022-12-29T05:29:26.611Z,9.2
2022-12-29T05:34:26.678Z,9.2
2022-12-29T05:39:26.613Z,9.4
2022-12-29T05:44:26.609Z,9.3
2022-12-29T05:49:26.614Z,9.1
2022-12-29T05:54:26.703Z,9.1
2022-12-29T05:59:26.623Z,9.1
2022-12-29T06:04:26.684Z,9.2
2022-12-29T06:09:26.623Z,9.2
2022-12-29T06:14:26.628Z,9.2
2022-12-29T06:19:26.632Z,9.1
2022-12-29T06:24:26.754Z,9.1
2022-12-29T06:29:26.638Z,9.1
2022-12-29T06:34:26.698Z,9.1
2022-12-29T06:39:26.638Z,9.1
2022-12-29T06:44:26.651Z,9.0
2022-12-29T06:49:26.654Z,8.9
2022-12-29T06:54:26.755Z,8.8
2022-12-29T06:59:26.662Z,8.6
2022-12-29T07:04:26.728Z,8.6
2022-12-29T07:09:26.660Z,8.6
2022-12-29T07:14:26.673Z,8.5
2022-12-29T07:19:26.666Z,8.5
2022-12-29T07:24:26.782Z,8.5
2022-12-29T07:29:26.671Z,8.6
2022-12-29T07:34:26.728Z,8.5
2022-12-29T07:39:26.680Z,8.4
2022-12-29T07:44:26.677Z,8.2
2022-12-29T07:49:26.690Z,8.0
2022-12-29T07:54:26.758Z,7.9
2022-12-29T07:59:26.689Z,7.8
2022-12-29T08:04:26.753Z,7.7
2022-12-29T08:09:26.688Z,7.6
2022-12-29T08:14:26.696Z,7.7
2022-12-29T08:19:26.697Z,7.8
2022-12-29T08:24:26.818Z,8.0
2022-12-29T08:29:26.699Z,8.1
2022-12-29T08:34:26.771Z,8.1
2022-12-29T08:39:26.709Z,8.1
2022-12-29T08:44:26.707Z,8.2
2022-12-29T08:49:26.711Z,8.2
2022-12-29T08:54:26.828Z,8.4
2022-12-29T08:59:26.723Z,8.4
2022-12-29T09:04:26.977Z,8.5
2022-12-29T09:09:26.735Z,8.6
2022-12-29T09:14:26.735Z,8.8
2022-12-29T09:19:26.736Z,8.8
2022-12-29T09:24:26.878Z,8.7
2022-12-29T09:29:26.744Z,8.6
2022-12-29T09:34:26.819Z,8.8
2022-12-29T09:39:26.746Z,8.8
2022-12-29T09:44:26.750Z,8.8
2022-12-29T09:49:26.753Z,8.8
2022-12-29T09:54:26.881Z,8.9
2022-12-29T09:59:26.762Z,8.9
2022-12-29T10:04:26.807Z,8.8
2022-12-29T10:09:26.761Z,8.8
2022-12-29T10:14:26.764Z,8.7
2022-12-29T10:19:32.743Z,8.6
2022-12-29T10:24:26.881Z,8.6
2022-12-29T10:29:26.774Z,8.7
2022-12-29T10:34:26.826Z,8.6
2022-12-29T10:39:26.777Z,8.6
2022-12-29T10:44:26.796Z,8.6
2022-12-29T10:49:26.785Z,8.6
2022-12-29T10:54:26.903Z,8.6
2022-12-29T10:59:26.806Z,8.6
2022-12-29T11:04:26.840Z,8.5
2022-12-29T11:09:41.550Z,8.6
2022-12-29T11:14:26.802Z,8.5
2022-12-29T11:19:26.798Z,8.6
2022-12-29T11:24:26.923Z,8.7
2022-12-29T11:29:26.841Z,8.7
2022-12-29T11:34:26.927Z,8.8
2022-12-29T11:39:26.818Z,8.7
2022-12-29T11:44:26.825Z,8.7
2022-12-29T11:49:26.810Z,8.7
2022-12-29T11:54:26.881Z,8.8
2022-12-29T11:59:26.818Z,8.6
2022-12-29T12:04:26.908Z,8.8
2022-12-29T12:09:26.829Z,8.8
2022-12-29T12:14:26.831Z,8.6
2022-12-29T12:19:26.841Z,8.4
2022-12-29T12:24:26.964Z,8.4
2022-12-29T12:29:26.840Z,8.4
2022-12-29T12:34:26.912Z,8.5
2022-12-29T12:39:26.841Z,8.4
2022-12-29T12:44:26.855Z,8.5
2022-12-29T12:49:26.853Z,8.5
2022-12-29T12:54:26.968Z,8.6
2022-12-29T12:59:26.861Z,8.7
2022-12-29T13:04:26.922Z,8.8
2022-12-29T13:09:26.863Z,8.8
2022-12-29T13:14:26.869Z,8.9
2022-12-29T13:19:26.868Z,8.9
2022-12-29T13:24:27.003Z,8.9
2022-12-29T13:29:26.878Z,8.8
2022-12-29T13:34:26.932Z,8.8
2022-12-29T13:39:26.894Z,8.9
2022-12-29T13:44:28.062Z,8.9
2022-12-29T13:49:26.890Z,8.9
2022-12-29T13:54:27.005Z,8.8
2022-12-29T13:59:26.901Z,8.9
2022-12-29T14:04:26.957Z,8.9
2022-12-29T14:09:30.409Z,8.8
2022-12-29T14:14:26.904Z,8.8
2022-12-29T14:19:26.913Z,8.6
2022-12-29T14:24:26.965Z,8.5
2022-12-29T14:29:26.919Z,8.4
2022-12-29T14:34:26.967Z,8.3
2022-12-29T14:39:26.926Z,8.4
2022-12-29T14:44:26.918Z,8.4
2022-12-29T14:49:26.936Z,8.4
2022-12-29T14:54:26.984Z,8.4
2022-12-29T14:59:26.925Z,8.2
2022-12-29T15:04:26.991Z,8.2
2022-12-29T15:09:26.932Z,8.1
2022-12-29T15:14:26.939Z,7.9
2022-12-29T15:19:26.949Z,7.7
2022-12-29T15:24:27.051Z,7.7
2022-12-29T15:29:26.953Z,7.7
2022-12-29T15:34:27.045Z,7.7
2022-12-29T15:39:26.951Z,7.7
2022-12-29T15:44:26.957Z,7.6
2022-12-29T15:49:32.065Z,7.7
2022-12-29T15:54:27.069Z,7.7
2022-12-29T15:59:26.954Z,7.7
2022-12-29T16:04:27.021Z,7.7
2022-12-29T16:09:26.977Z,7.8
2022-12-29T16:14:26.963Z,7.8
2022-12-29T16:19:26.980Z,7.9
2022-12-29T16:24:27.088Z,7.9
2022-12-29T16:29:26.977Z,7.9
2022-12-29T16:34:27.038Z,7.9
2022-12-29T16:39:26.984Z,8.0
2022-12-29T16:44:26.983Z,8.0
2022-12-29T16:49:26.990Z,8.0
2022-12-29T16:54:27.108Z,8.0
2022-12-29T16:59:27.005Z,7.9
2022-12-29T17:04:27.053Z,8.0
2022-12-29T17:09:26.995Z,8.0
2022-12-29T17:14:27.005Z,7.9
2022-12-29T17:19:27.004Z,7.8
2022-12-29T17:24:27.027Z,7.7
2022-12-29T17:29:27.247Z,7.6
2022-12-29T17:34:27.087Z,7.6
2022-12-29T17:39:27.031Z,7.4
2022-12-29T17:44:27.024Z,7.3
2022-12-29T17:49:27.028Z,7.3
2022-12-29T17:54:27.028Z,7.2
2022-12-29T17:59:27.029Z,7.1
2022-12-29T18:04:27.203Z,7.0
2022-12-29T18:09:27.032Z,7.0
2022-12-29T18:14:27.040Z,7.0
2022-12-29T18:19:30.985Z,7.0
2022-12-29T18:24:27.047Z,7.0
2022-12-29T18:29:27.042Z,7.0
2022-12-29T18:34:27.109Z,7.0
2022-12-29T18:39:29.878Z,6.9
2022-12-29T18:44:27.047Z,6.9
2022-12-29T18:49:27.058Z,6.9
2022-12-29T18:54:27.060Z,6.8
2022-12-29T18:59:27.061Z,6.9
2022-12-29T19:04:27.121Z,6.9
2022-12-29T19:09:27.060Z,6.8
2022-12-29T19:14:27.195Z,6.8
2022-12-29T19:19:27.067Z,6.8
2022-12-29T19:24:27.071Z,6.7
2022-12-29T19:29:27.081Z,6.7
2022-12-29T19:34:27.087Z,6.8
2022-12-29T19:39:27.159Z,6.7
2022-12-29T19:44:27.085Z,6.7
2022-12-29T19:49:27.368Z,6.7
2022-12-29T19:54:27.095Z,6.6
2022-12-29T19:59:27.089Z,6.6
2022-12-29T20:04:27.098Z,6.5
2022-12-29T20:09:27.105Z,6.5
2022-12-29T20:14:27.303Z,6.4
2022-12-29T20:19:27.106Z,6.4
2022-12-29T20:24:27.229Z,6.4
2022-12-29T20:29:27.136Z,6.5
2022-12-29T20:34:27.111Z,6.4
2022-12-29T20:39:27.117Z,6.4
2022-12-29T20:44:27.177Z,6.3
2022-12-29T20:49:27.118Z,6.3
2022-12-29T20:54:27.255Z,6.3
2022-12-29T20:59:28.527Z,6.3
2022-12-29T21:04:27.143Z,6.3
2022-12-29T21:09:27.133Z,6.2
2022-12-29T21:14:27.197Z,6.3
2022-12-29T21:19:27.146Z,6.3
2022-12-29T21:24:27.256Z,6.3
2022-12-29T21:29:27.136Z,6.4
2022-12-29T21:34:27.176Z,6.4
2022-12-29T21:39:27.160Z,6.4
2022-12-29T21:44:27.234Z,6.4
2022-12-29T21:49:27.159Z,6.5
2022-12-29T21:54:27.277Z,6.5
2022-12-29T21:59:27.159Z,6.4
2022-12-29T22:04:27.172Z,6.4
2022-12-29T22:09:27.175Z,6.5
2022-12-29T22:14:27.231Z,6.5
2022-12-29T22:19:27.173Z,6.4
2022-12-29T22:24:27.241Z,6.3
2022-12-29T22:29:27.198Z,6.3
2022-12-29T22:34:27.183Z,6.2
2022-12-29T22:39:27.191Z,6.0
2022-12-29T22:44:27.247Z,6.1
2022-12-29T22:49:27.190Z,6.0
2022-12-29T22:54:27.312Z,5.9
2022-12-29T22:59:27.198Z,5.8
2022-12-29T23:05:01.546Z,5.9
2022-12-29T23:09:27.199Z,5.9
2022-12-29T23:14:27.269Z,5.9
2022-12-29T23:19:27.213Z,6.0
2022-12-29T23:24:27.373Z,5.9
2022-12-29T23:29:27.224Z,5.9
2022-12-29T23:34:27.213Z,5.9
2022-12-29T23:39:27.218Z,5.9
2022-12-29T23:44:27.430Z,5.9
2022-12-29T23:49:27.226Z,5.9
2022-12-29T23:54:27.292Z,5.8
2022-12-29T23:59:27.229Z,5.8
